createdAt,value
2017-03-07T00:00:08.726Z,1003.3
2017-03-07T00:01:11.170Z,1003.4
2017-03-07T00:02:13.866Z,1003.3
2017-03-07T00:03:16.317Z,1003.4
2017-03-07T00:04:19.118Z,1003.4
2017-03-07T00:05:21.583Z,1003.4
2017-03-07T00:06:24.031Z,1003.4
2017-03-07T00:07:26.811Z,1003.4
2017-03-07T00:08:29.274Z,1003.4
2017-03-07T00:09:32.061Z,1003.4
2017-03-07T00:10:34.523Z,1003.4
2017-03-07T00:11:36.997Z,1003.4
2017-03-07T00:12:39.700Z,1003.5
2017-03-07T00:13:42.151Z,1003.4
2017-03-07T00:14:44.617Z,1003.4
2017-03-07T00:15:47.562Z,1003.4
2017-03-07T00:16:49.875Z,1003.5
2017-03-07T00:17:52.920Z,1003.5
2017-03-07T00:18:55.372Z,1003.5
2017-03-07T00:19:57.665Z,1003.5
2017-03-07T00:21:00.615Z,1003.5
2017-03-07T00:22:03.064Z,1003.5
2017-03-07T00:23:05.767Z,1003.5
2017-03-07T00:24:08.223Z,1003.5
2017-03-07T00:25:10.704Z,1003.5
2017-03-07T00:26:13.156Z,1003.6
2017-03-07T00:27:16.130Z,1003.6
2017-03-07T00:28:18.839Z,1003.6
2017-03-07T00:29:21.287Z,1003.6
2017-03-07T00:30:23.769Z,1003.6
2017-03-07T00:31:26.221Z,1003.6
2017-03-07T00:32:28.705Z,1003.6
2017-03-07T00:33:31.959Z,1003.7
2017-03-07T00:34:33.904Z,1003.7
2017-03-07T00:35:36.893Z,1003.7
2017-03-07T00:36:39.366Z,1003.6
2017-03-07T00:37:41.832Z,1003.7
2017-03-07T00:38:44.592Z,1003.7
2017-03-07T00:39:47.057Z,1003.7
2017-03-07T00:40:49.506Z,1003.7
2017-03-07T00:41:51.958Z,1003.7
2017-03-07T00:42:54.910Z,1003.7
2017-03-07T00:43:57.617Z,1003.8
2017-03-07T00:45:00.077Z,1003.7
2017-03-07T00:46:02.539Z,1003.7
2017-03-07T00:48:07.893Z,1003.8
2017-03-07T00:49:10.624Z,1003.7
2017-03-07T00:50:13.116Z,1003.8
2017-03-07T00:51:15.575Z,1003.8
2017-03-07T00:52:18.020Z,1003.8
2017-03-07T00:53:20.467Z,1003.8
2017-03-07T00:54:23.676Z,1003.8
2017-03-07T00:55:25.959Z,1003.8
2017-03-07T00:56:28.409Z,1003.8
2017-03-07T00:57:30.860Z,1003.8
2017-03-07T00:58:33.812Z,1003.8
2017-03-07T00:59:36.613Z,1003.8
2017-03-07T01:00:38.563Z,1003.8
2017-03-07T01:01:41.198Z,1003.8
2017-03-07T01:02:44.156Z,1003.8
2017-03-07T01:03:46.638Z,1004
2017-03-07T01:04:49.399Z,1003.8
2017-03-07T01:05:51.864Z,1004
2017-03-07T01:06:54.327Z,1004
2017-03-07T01:07:56.773Z,1004
2017-03-07T01:08:59.246Z,1004
2017-03-07T01:10:02.296Z,1004
2017-03-07T01:11:04.753Z,1004
2017-03-07T01:12:07.202Z,1004
2017-03-07T01:13:09.989Z,1004
2017-03-07T01:14:12.278Z,1004
2017-03-07T01:15:15.006Z,1004
2017-03-07T01:16:17.465Z,1004
2017-03-07T01:17:19.947Z,1004
2017-03-07T01:18:22.733Z,1004
2017-03-07T01:19:25.190Z,1004
2017-03-07T01:20:27.909Z,1004.1
2017-03-07T01:21:30.379Z,1004
2017-03-07T01:22:32.858Z,1004
2017-03-07T01:23:35.808Z,1004.1
2017-03-07T01:24:38.257Z,1004
2017-03-07T01:25:40.968Z,1004.1
2017-03-07T01:26:43.428Z,1004.1
2017-03-07T01:27:45.882Z,1004.1
2017-03-07T01:28:48.332Z,1004.1
2017-03-07T01:29:51.298Z,1004.1
2017-03-07T01:30:54.020Z,1004.1
2017-03-07T01:31:56.486Z,1004.1
2017-03-07T01:32:58.934Z,1004.1
2017-03-07T01:35:03.825Z,1004.1
2017-03-07T01:36:07.039Z,1004.2
2017-03-07T01:37:09.016Z,1004.2
2017-03-07T01:38:11.966Z,1004.2
2017-03-07T01:39:14.455Z,1004.1
2017-03-07T01:40:16.907Z,1004.2
2017-03-07T01:41:19.655Z,1004.2
2017-03-07T01:42:22.113Z,1004.2
2017-03-07T01:43:24.925Z,1004.3
2017-03-07T01:44:27.216Z,1004.3
2017-03-07T01:45:29.671Z,1004.2
2017-03-07T01:46:32.942Z,1004.2
2017-03-07T01:47:34.887Z,1004.2
2017-03-07T01:48:37.716Z,1004.3
2017-03-07T01:49:40.173Z,1004.3
2017-03-07T01:50:42.792Z,1004.3
2017-03-07T01:51:45.497Z,1004.3
2017-03-07T01:52:47.985Z,1004.3
2017-03-07T01:53:50.778Z,1004.3
2017-03-07T01:54:53.231Z,1004.3
2017-03-07T01:55:55.703Z,1004.3
2017-03-07T01:56:58.417Z,1004.4
2017-03-07T01:58:00.911Z,1004.3
2017-03-07T01:59:03.384Z,1004.3
2017-03-07T02:00:05.853Z,1004.3
2017-03-07T02:01:08.799Z,1004.4
2017-03-07T02:02:11.504Z,1004.4
2017-03-07T02:03:13.958Z,1004.4
2017-03-07T02:04:16.420Z,1004.5
2017-03-07T02:05:18.872Z,1004.5
2017-03-07T02:06:21.330Z,1004.5
2017-03-07T02:08:26.824Z,1004.5
2017-03-07T02:09:29.287Z,1004.5
2017-03-07T02:10:31.949Z,1004.5
2017-03-07T02:11:34.400Z,1004.5
2017-03-07T02:12:36.857Z,1004.5
2017-03-07T02:13:40.067Z,1004.5
2017-03-07T02:14:42.028Z,1004.5
2017-03-07T02:15:44.982Z,1004.5
2017-03-07T02:16:47.431Z,1004.5
2017-03-07T02:17:49.882Z,1004.5
2017-03-07T02:18:52.583Z,1004.6
2017-03-07T02:19:55.028Z,1004.6
2017-03-07T02:20:57.471Z,1004.6
2017-03-07T02:22:00.273Z,1004.6
2017-03-07T02:23:02.723Z,1004.6
2017-03-07T02:24:05.988Z,1004.6
2017-03-07T02:25:07.939Z,1004.6
2017-03-07T02:26:10.407Z,1004.6
2017-03-07T02:27:13.361Z,1004.6
2017-03-07T02:28:15.852Z,1004.6
2017-03-07T02:29:18.549Z,1004.7
2017-03-07T02:30:21.004Z,1004.7
2017-03-07T02:31:23.464Z,1004.7
2017-03-07T02:32:26.080Z,1004.7
2017-03-07T02:33:28.863Z,1004.7
2017-03-07T02:34:31.561Z,1004.7
2017-03-07T02:35:34.012Z,1004.7
2017-03-07T02:36:36.470Z,1004.8
2017-03-07T02:37:39.287Z,1004.8
2017-03-07T02:38:41.758Z,1004.8
2017-03-07T02:39:44.511Z,1004.8
2017-03-07T02:41:49.384Z,1004.8
2017-03-07T02:42:51.844Z,1004.7
2017-03-07T02:43:54.327Z,1004.8
2017-03-07T02:44:57.589Z,1004.8
2017-03-07T02:47:02.299Z,1004.8
2017-03-07T02:48:04.819Z,1004.8
2017-03-07T02:49:07.287Z,1004.8
2017-03-07T02:50:10.503Z,1004.9
2017-03-07T02:51:12.438Z,1004.8
2017-03-07T02:52:15.413Z,1004.9
2017-03-07T02:53:17.883Z,1004.8
2017-03-07T02:54:20.341Z,1004.9
2017-03-07T02:55:23.047Z,1004.8
2017-03-07T02:56:25.494Z,1004.9
2017-03-07T02:57:27.945Z,1004.9
2017-03-07T02:58:30.391Z,1004.9
2017-03-07T02:59:33.345Z,1004.9
2017-03-07T03:00:36.042Z,1004.9
2017-03-07T03:01:38.514Z,1004.9
2017-03-07T03:02:40.973Z,1005
2017-03-07T03:03:43.430Z,1005
2017-03-07T03:04:45.888Z,1005
2017-03-07T03:05:49.093Z,1005
2017-03-07T03:06:51.062Z,1005
2017-03-07T03:07:54.012Z,1005
2017-03-07T03:08:56.465Z,1005
2017-03-07T03:09:58.929Z,1005.1
2017-03-07T03:11:01.644Z,1005.1
2017-03-07T03:12:04.135Z,1005.1
2017-03-07T03:13:06.621Z,1005.2
2017-03-07T03:14:09.071Z,1005.1
2017-03-07T03:15:12.028Z,1005.2
2017-03-07T03:16:14.774Z,1005.2
2017-03-07T03:17:17.228Z,1005.2
2017-03-07T03:18:19.532Z,1005.2
2017-03-07T03:19:21.978Z,1005.2
2017-03-07T03:20:24.658Z,1005.2
2017-03-07T03:21:27.421Z,1005.3
2017-03-07T03:23:32.314Z,1005.2
2017-03-07T03:24:34.787Z,1005.3
2017-03-07T03:25:37.749Z,1005.3
2017-03-07T03:26:40.291Z,1005.3
2017-03-07T03:27:42.754Z,1005.4
2017-03-07T03:28:45.225Z,1005.3
2017-03-07T03:29:47.674Z,1005.3
2017-03-07T03:30:50.641Z,1005.3
2017-03-07T03:31:53.350Z,1005.3
2017-03-07T03:32:55.801Z,1005.4
2017-03-07T03:33:58.282Z,1005.4
2017-03-07T03:35:00.759Z,1005.4
2017-03-07T03:36:03.217Z,1005.4
2017-03-07T03:37:05.936Z,1005.4
2017-03-07T03:38:08.383Z,1005.5
2017-03-07T03:39:10.838Z,1005.5
2017-03-07T03:40:13.791Z,1005.5
2017-03-07T03:41:16.246Z,1005.5
2017-03-07T03:42:18.836Z,1005.5
2017-03-07T03:43:21.303Z,1005.6
2017-03-07T03:44:23.756Z,1005.6
2017-03-07T03:45:26.206Z,1005.6
2017-03-07T03:46:29.203Z,1005.6
2017-03-07T03:47:31.807Z,1005.6
2017-03-07T03:48:34.264Z,1005.7
2017-03-07T03:49:36.716Z,1005.7
2017-03-07T03:50:39.516Z,1005.7
2017-03-07T03:51:41.967Z,1005.7
2017-03-07T03:52:44.736Z,1005.7
2017-03-07T03:53:47.197Z,1005.8
2017-03-07T03:54:49.671Z,1005.7
2017-03-07T03:55:52.126Z,1005.8
2017-03-07T03:56:54.591Z,1005.8
2017-03-07T03:57:57.325Z,1005.8
2017-03-07T03:58:59.785Z,1005.8
2017-03-07T04:00:02.272Z,1005.8
2017-03-07T04:02:07.635Z,1005.8
2017-03-07T04:03:10.388Z,1005.8
2017-03-07T04:04:12.845Z,1005.9
2017-03-07T04:05:15.339Z,1005.9
2017-03-07T04:06:17.798Z,1005.8
2017-03-07T04:07:20.255Z,1005.9
2017-03-07T04:08:22.971Z,1005.8
2017-03-07T04:09:25.430Z,1005.9
2017-03-07T04:10:27.888Z,1005.9
2017-03-07T04:11:30.845Z,1006
2017-03-07T04:12:33.308Z,1006
2017-03-07T04:13:36.006Z,1006
2017-03-07T04:14:38.466Z,1006
2017-03-07T04:15:40.916Z,1006
2017-03-07T04:16:43.220Z,1006
2017-03-07T04:17:46.182Z,1006
2017-03-07T04:18:48.893Z,1006.1
2017-03-07T04:19:51.357Z,1006
2017-03-07T04:20:53.811Z,1006.1
2017-03-07T04:21:56.285Z,1006
2017-03-07T04:22:59.083Z,1006.1
2017-03-07T04:24:01.623Z,1006.1
2017-03-07T04:25:04.079Z,1006.1
2017-03-07T04:26:06.553Z,1006.1
2017-03-07T04:27:09.011Z,1006.2
2017-03-07T04:28:11.473Z,1006.2
2017-03-07T04:29:14.689Z,1006.2
2017-03-07T04:30:16.651Z,1006.3
2017-03-07T04:31:19.621Z,1006.2
2017-03-07T04:32:21.905Z,1006.3
2017-03-07T04:33:24.355Z,1006.3
2017-03-07T04:34:27.630Z,1006.3
2017-03-07T04:35:29.575Z,1006.3
2017-03-07T04:36:32.028Z,1006.3
2017-03-07T04:37:34.818Z,1006.4
2017-03-07T04:38:37.306Z,1006.4
2017-03-07T04:40:42.766Z,1006.4
2017-03-07T04:41:45.262Z,1006.4
2017-03-07T04:42:47.735Z,1006.5
2017-03-07T04:43:50.017Z,1006.4
2017-03-07T04:44:52.974Z,1006.5
2017-03-07T04:45:55.704Z,1006.4
2017-03-07T04:46:57.656Z,1006.4
2017-03-07T04:48:00.607Z,1006.5
2017-03-07T04:49:03.092Z,1006.5
2017-03-07T04:50:05.546Z,1006.5
2017-03-07T04:51:08.248Z,1006.5
2017-03-07T04:52:10.732Z,1006.6
2017-03-07T04:53:13.196Z,1006.6
2017-03-07T04:54:15.657Z,1006.6
2017-03-07T04:55:18.618Z,1006.6
2017-03-07T04:56:21.332Z,1006.6
2017-03-07T04:57:23.285Z,1006.6
2017-03-07T04:58:26.247Z,1006.6
2017-03-07T04:59:28.716Z,1006.7
2017-03-07T05:00:31.180Z,1006.7
2017-03-07T05:01:33.918Z,1006.7
2017-03-07T05:02:36.372Z,1006.8
2017-03-07T05:03:38.831Z,1006.8
2017-03-07T05:04:41.284Z,1006.8
2017-03-07T05:05:44.073Z,1006.8
2017-03-07T05:06:46.829Z,1006.9
2017-03-07T05:08:51.691Z,1006.8
2017-03-07T05:09:54.188Z,1006.8
2017-03-07T05:10:56.666Z,1006.9
2017-03-07T05:11:59.388Z,1006.9
2017-03-07T05:13:01.873Z,1006.8
2017-03-07T05:14:04.343Z,1006.8
2017-03-07T05:15:06.796Z,1006.9
2017-03-07T05:16:09.591Z,1006.9
2017-03-07T05:17:12.311Z,1006.9
2017-03-07T05:18:14.775Z,1007
2017-03-07T05:19:17.386Z,1007
2017-03-07T05:20:19.837Z,1007
2017-03-07T05:21:22.306Z,1007
2017-03-07T05:22:25.346Z,1007
2017-03-07T05:23:27.325Z,1007
2017-03-07T05:24:30.124Z,1007.1
2017-03-07T05:25:32.577Z,1007.1
2017-03-07T05:26:35.060Z,1007.1
2017-03-07T05:27:38.099Z,1007.1
2017-03-07T05:28:40.564Z,1007.1
2017-03-07T05:29:43.046Z,1007.1
2017-03-07T05:30:45.509Z,1007.2
2017-03-07T05:31:15.754Z,1007.2
2017-03-07T05:31:48.006Z,1007.2
2017-03-07T05:32:50.569Z,1007.2
2017-03-07T05:33:52.987Z,1007.2
2017-03-07T05:34:55.455Z,1007.2
2017-03-07T05:35:58.408Z,1007.3
2017-03-07T05:37:00.874Z,1007.2
2017-03-07T05:38:03.600Z,1007.3
2017-03-07T05:39:06.053Z,1007.3
2017-03-07T05:40:08.553Z,1007.3
2017-03-07T05:41:11.000Z,1007.3
2017-03-07T05:42:13.459Z,1007.3
2017-03-07T05:43:16.236Z,1007.4
2017-03-07T05:44:18.688Z,1007.4
2017-03-07T05:46:23.556Z,1007.4
2017-03-07T05:47:26.341Z,1007.5
2017-03-07T05:48:29.095Z,1007.4
2017-03-07T05:49:31.564Z,1007.5
2017-03-07T05:50:34.041Z,1007.5
2017-03-07T05:51:36.324Z,1007.5
2017-03-07T05:52:39.281Z,1007.5
2017-03-07T05:54:44.389Z,1007.5
2017-03-07T05:55:46.672Z,1007.5
2017-03-07T05:56:49.141Z,1007.6
2017-03-07T05:57:52.098Z,1007.6
2017-03-07T05:58:54.408Z,1007.6
2017-03-07T05:59:57.113Z,1007.6
2017-03-07T06:00:59.620Z,1007.6
2017-03-07T06:02:02.073Z,1007.6
2017-03-07T06:03:04.527Z,1007.7
2017-03-07T06:04:06.981Z,1007.7
2017-03-07T06:05:10.190Z,1007.7
2017-03-07T06:06:12.477Z,1007.7
2017-03-07T06:07:14.953Z,1007.7
2017-03-07T06:08:17.405Z,1007.8
2017-03-07T06:09:19.853Z,1007.8
2017-03-07T06:10:22.610Z,1007.8
2017-03-07T06:11:25.059Z,1007.8
2017-03-07T06:12:27.512Z,1007.9
2017-03-07T06:13:29.976Z,1007.9
2017-03-07T06:14:32.941Z,1008
2017-03-07T06:15:35.697Z,1008
2017-03-07T06:16:05.949Z,1008
2017-03-07T06:16:37.701Z,1007.9
2017-03-07T06:17:40.166Z,1007.9
2017-03-07T06:18:43.117Z,1008
2017-03-07T06:19:45.602Z,1008
2017-03-07T06:20:48.365Z,1008.1
2017-03-07T06:22:53.223Z,1008
2017-03-07T06:23:55.684Z,1008.1
2017-03-07T06:24:58.158Z,1008.2
2017-03-07T06:27:03.790Z,1008.2
2017-03-07T06:29:08.155Z,1008.2
2017-03-07T06:32:16.468Z,1008.2
2017-03-07T06:33:18.754Z,1008.3
2017-03-07T06:35:23.795Z,1008.3
2017-03-07T06:37:28.957Z,1008.3
2017-03-07T06:38:31.418Z,1008.3
2017-03-07T06:39:33.889Z,1008.4
2017-03-07T06:40:36.350Z,1008.5
2017-03-07T06:41:38.821Z,1008.5
2017-03-07T06:42:41.880Z,1008.5
2017-03-07T06:43:44.245Z,1008.6
2017-03-07T06:45:49.124Z,1008.6
2017-03-07T06:47:54.310Z,1008.6
2017-03-07T06:48:56.768Z,1008.7
2017-03-07T06:49:59.245Z,1008.7
2017-03-07T06:51:01.693Z,1008.7
2017-03-07T06:52:04.160Z,1008.7
2017-03-07T06:56:14.582Z,1008.8
2017-03-07T06:56:44.845Z,1008.8
2017-03-07T06:57:17.115Z,1008.8
2017-03-07T06:57:47.705Z,1008.8
2017-03-07T06:58:19.467Z,1008.8
2017-03-07T06:59:22.440Z,1008.8
2017-03-07T07:00:24.888Z,1008.9
2017-03-07T07:02:30.006Z,1008.9
2017-03-07T07:04:34.863Z,1008.9
2017-03-07T07:05:37.324Z,1009
2017-03-07T07:08:45.343Z,1009
2017-03-07T07:10:50.200Z,1009
2017-03-07T07:11:52.651Z,1009.1
2017-03-07T07:13:58.318Z,1009.2
2017-03-07T07:16:02.691Z,1009.1
2017-03-07T07:21:16.038Z,1009.3
2017-03-07T07:23:20.901Z,1009.4
2017-03-07T07:30:38.561Z,1009.4
2017-03-07T07:31:40.845Z,1009.5
2017-03-07T07:34:48.635Z,1009.6
2017-03-07T07:35:51.378Z,1009.6
2017-03-07T07:36:53.834Z,1009.6
2017-03-07T07:37:56.336Z,1009.7
2017-03-07T07:38:58.781Z,1009.7
2017-03-07T07:40:01.262Z,1009.7
2017-03-07T07:41:04.029Z,1009.7
2017-03-07T07:42:06.484Z,1009.7
2017-03-07T07:43:08.946Z,1009.7
2017-03-07T07:44:11.399Z,1009.7
2017-03-07T07:46:16.912Z,1009.7
2017-03-07T07:47:18.883Z,1009.8
2017-03-07T07:48:21.671Z,1009.8
2017-03-07T07:49:24.122Z,1009.8
2017-03-07T07:51:29.738Z,1009.8
2017-03-07T07:52:31.695Z,1009.8
2017-03-07T07:53:34.486Z,1009.9
2017-03-07T07:54:36.769Z,1009.9
2017-03-07T07:55:39.557Z,1009.9
2017-03-07T07:56:42.329Z,1009.9
2017-03-07T07:57:44.614Z,1009.9
2017-03-07T07:58:47.067Z,1009.9
2017-03-07T07:59:49.358Z,1009.9
2017-03-07T08:00:52.338Z,1009.9
2017-03-07T08:01:55.069Z,1009.9
2017-03-07T08:02:57.023Z,1009.9
2017-03-07T08:03:59.992Z,1009.8
2017-03-07T08:05:02.274Z,1009.9
2017-03-07T08:07:07.405Z,1009.9
2017-03-07T08:08:09.853Z,1009.9
2017-03-07T08:09:12.312Z,1009.9
2017-03-07T08:10:14.767Z,1010.1
2017-03-07T08:11:17.720Z,1009.9
2017-03-07T08:12:20.426Z,1010.1
2017-03-07T08:13:22.375Z,1009.9
2017-03-07T08:16:30.165Z,1010.1
2017-03-07T08:17:32.929Z,1010.1
2017-03-07T08:18:35.379Z,1010.1
2017-03-07T08:19:37.828Z,1010.2
2017-03-07T08:20:40.630Z,1010.1
2017-03-07T08:21:43.112Z,1010.2
2017-03-07T08:22:45.881Z,1010.1
2017-03-07T08:23:47.827Z,1010.2
2017-03-07T08:24:50.621Z,1010.2
2017-03-07T08:25:53.086Z,1010.3
2017-03-07T08:26:55.544Z,1010.3
2017-03-07T08:27:58.648Z,1010.3
2017-03-07T08:29:00.938Z,1010.3
2017-03-07T08:30:03.249Z,1010.4
2017-03-07T08:31:06.037Z,1010.4
2017-03-07T08:32:08.324Z,1010.4
2017-03-07T08:33:11.054Z,1010.4
2017-03-07T08:34:13.520Z,1010.4
2017-03-07T08:35:15.981Z,1010.4
2017-03-07T08:36:18.439Z,1010.5
2017-03-07T08:37:20.912Z,1010.5
2017-03-07T08:38:23.623Z,1010.5
2017-03-07T08:39:26.076Z,1010.5
2017-03-07T08:40:28.537Z,1010.6
2017-03-07T08:41:30.987Z,1010.6
2017-03-07T08:42:33.788Z,1010.7
2017-03-07T08:43:36.494Z,1010.6
2017-03-07T08:44:38.949Z,1010.6
2017-03-07T08:46:43.815Z,1010.7
2017-03-07T08:47:46.605Z,1010.7
2017-03-07T08:48:49.317Z,1010.7
2017-03-07T08:49:51.781Z,1010.7
2017-03-07T08:50:54.066Z,1010.7
2017-03-07T08:51:56.526Z,1010.7
2017-03-07T08:52:58.983Z,1010.8
2017-03-07T08:54:02.188Z,1010.8
2017-03-07T08:55:04.145Z,1010.8
2017-03-07T08:56:06.607Z,1010.8
2017-03-07T08:57:09.419Z,1010.8
2017-03-07T08:58:11.886Z,1010.9
2017-03-07T08:59:14.938Z,1010.9
2017-03-07T09:00:16.915Z,1010.8
2017-03-07T09:01:19.372Z,1010.9
2017-03-07T09:02:21.823Z,1010.9
2017-03-07T09:03:24.782Z,1010.9
2017-03-07T09:04:27.546Z,1010.9
2017-03-07T09:05:29.496Z,1010.9
2017-03-07T09:06:32.449Z,1010.9
2017-03-07T09:07:34.911Z,1010.9
2017-03-07T09:08:37.190Z,1010.9
2017-03-07T09:09:39.937Z,1010.9
2017-03-07T09:10:42.428Z,1011
2017-03-07T09:11:44.886Z,1011
2017-03-07T09:12:47.356Z,1011
2017-03-07T09:13:50.148Z,1011.1
2017-03-07T09:14:52.913Z,1011
2017-03-07T09:15:54.903Z,1011
2017-03-07T09:16:57.863Z,1011.1
2017-03-07T09:18:00.317Z,1011.1
2017-03-07T09:19:02.771Z,1011.2
2017-03-07T09:20:05.476Z,1011.1
2017-03-07T09:21:07.765Z,1011.2
2017-03-07T09:22:10.220Z,1011.2
2017-03-07T09:23:13.183Z,1011.1
2017-03-07T09:24:15.638Z,1011.2
2017-03-07T09:25:18.284Z,1011.2
2017-03-07T09:26:20.735Z,1011.1
2017-03-07T09:27:23.202Z,1011.2
2017-03-07T09:28:25.650Z,1011.2
2017-03-07T09:29:28.102Z,1011.2
2017-03-07T09:30:30.815Z,1011.2
2017-03-07T09:31:33.265Z,1011.3
2017-03-07T09:32:35.735Z,1011.3
2017-03-07T09:33:38.185Z,1011.3
2017-03-07T09:34:41.142Z,1011.3
2017-03-07T09:35:43.844Z,1011.4
2017-03-07T09:36:45.790Z,1011.4
2017-03-07T09:37:48.415Z,1011.4
2017-03-07T09:38:51.217Z,1011.5
2017-03-07T09:39:53.668Z,1011.5
2017-03-07T09:40:56.413Z,1011.6
2017-03-07T09:41:58.872Z,1011.5
2017-03-07T09:44:03.730Z,1011.6
2017-03-07T09:45:06.381Z,1011.6
2017-03-07T09:46:09.083Z,1011.6
2017-03-07T09:47:11.535Z,1011.7
2017-03-07T09:48:13.989Z,1011.7
2017-03-07T09:49:16.440Z,1011.8
2017-03-07T09:50:18.905Z,1011.8
2017-03-07T09:51:22.164Z,1011.8
2017-03-07T09:52:24.116Z,1011.7
2017-03-07T09:53:26.570Z,1011.8
2017-03-07T09:54:29.037Z,1011.8
2017-03-07T09:55:31.993Z,1011.9
2017-03-07T09:56:34.761Z,1011.8
2017-03-07T09:57:37.080Z,1011.8
2017-03-07T09:58:39.538Z,1011.9
2017-03-07T09:59:41.993Z,1011.9
2017-03-07T10:00:44.445Z,1011.9
2017-03-07T10:01:47.149Z,1011.9
2017-03-07T10:02:49.604Z,1011.9
2017-03-07T10:03:52.049Z,1012
2017-03-07T10:04:54.505Z,1012
2017-03-07T10:05:57.470Z,1012
2017-03-07T10:07:00.197Z,1012
2017-03-07T10:08:02.145Z,1012.1
2017-03-07T10:09:05.118Z,1012.1
2017-03-07T10:10:07.573Z,1012.1
2017-03-07T10:11:10.045Z,1012.1
2017-03-07T10:12:12.757Z,1012.1
2017-03-07T10:13:15.241Z,1012.2
2017-03-07T10:14:17.727Z,1012.1
2017-03-07T10:15:20.173Z,1012.2
2017-03-07T10:16:22.467Z,1012.2
2017-03-07T10:17:25.728Z,1012.2
2017-03-07T10:18:27.682Z,1012.2
2017-03-07T10:19:30.168Z,1012.3
2017-03-07T10:20:33.145Z,1012.3
2017-03-07T10:21:35.602Z,1012.3
2017-03-07T10:22:38.318Z,1012.3
2017-03-07T10:23:40.277Z,1012.3
2017-03-07T10:24:43.252Z,1012.3
2017-03-07T10:25:45.718Z,1012.3
2017-03-07T10:26:48.167Z,1012.3
2017-03-07T10:27:50.706Z,1012.3
2017-03-07T10:28:53.169Z,1012.3
2017-03-07T10:29:55.626Z,1012.3
2017-03-07T10:30:58.106Z,1012.3
2017-03-07T10:32:01.076Z,1012.3
2017-03-07T10:33:03.822Z,1012.3
2017-03-07T10:34:05.778Z,1012.3
2017-03-07T10:35:08.747Z,1012.4
2017-03-07T10:36:11.198Z,1012.4
2017-03-07T10:37:13.665Z,1012.4
2017-03-07T10:38:16.386Z,1012.4
2017-03-07T10:39:18.670Z,1012.4
2017-03-07T10:40:21.151Z,1012.4
2017-03-07T10:41:23.627Z,1012.5
2017-03-07T10:42:26.105Z,1012.5
2017-03-07T10:43:29.392Z,1012.5
2017-03-07T10:44:31.339Z,1012.5
2017-03-07T10:45:33.792Z,1012.5
2017-03-07T10:46:36.254Z,1012.5
2017-03-07T10:47:39.212Z,1012.5
2017-03-07T10:48:41.915Z,1012.5
2017-03-07T10:49:43.867Z,1012.5
2017-03-07T10:50:46.836Z,1012.5
2017-03-07T10:51:49.288Z,1012.5
2017-03-07T10:53:54.402Z,1012.6
2017-03-07T10:54:56.875Z,1012.6
2017-03-07T10:55:59.325Z,1012.6
2017-03-07T10:57:01.771Z,1012.6
2017-03-07T10:58:04.585Z,1012.6
2017-03-07T10:59:07.336Z,1012.6
2017-03-07T11:00:09.789Z,1012.6
2017-03-07T11:01:12.236Z,1012.7
2017-03-07T11:02:14.686Z,1012.7
2017-03-07T11:03:17.161Z,1012.7
2017-03-07T11:04:19.877Z,1012.7
2017-03-07T11:05:22.350Z,1012.7
2017-03-07T11:06:24.807Z,1012.7
2017-03-07T11:08:29.668Z,1012.8
2017-03-07T11:09:32.925Z,1012.7
2017-03-07T11:10:34.875Z,1012.7
2017-03-07T11:11:37.341Z,1012.8
2017-03-07T11:12:40.295Z,1012.8
2017-03-07T11:13:42.597Z,1012.8
2017-03-07T11:14:45.660Z,1012.8
2017-03-07T11:15:47.613Z,1012.8
2017-03-07T11:16:50.070Z,1012.9
2017-03-07T11:17:53.035Z,1012.8
2017-03-07T11:18:55.499Z,1012.9
2017-03-07T11:19:58.212Z,1012.9
2017-03-07T11:21:00.662Z,1012.9
2017-03-07T11:22:02.966Z,1012.9
2017-03-07T11:23:05.758Z,1013
2017-03-07T11:24:08.213Z,1013
2017-03-07T11:25:10.976Z,1013
2017-03-07T11:26:12.936Z,1013
2017-03-07T11:27:15.889Z,1013
2017-03-07T11:28:18.379Z,1013
2017-03-07T11:29:20.689Z,1012.9
2017-03-07T11:30:23.411Z,1013
2017-03-07T11:31:25.702Z,1012.9
2017-03-07T11:32:28.502Z,1013
2017-03-07T11:33:30.947Z,1013
2017-03-07T11:34:33.407Z,1013.1
2017-03-07T11:35:36.453Z,1013.1
2017-03-07T11:36:38.439Z,1013.1
2017-03-07T11:37:41.405Z,1013.1
2017-03-07T11:38:43.859Z,1013.1
2017-03-07T11:39:46.144Z,1013.2
2017-03-07T11:40:48.900Z,1013.1
2017-03-07T11:41:51.193Z,1013.2
2017-03-07T11:42:54.143Z,1013.2
2017-03-07T11:43:56.608Z,1013.2
2017-03-07T11:44:59.076Z,1013.3
2017-03-07T11:47:04.188Z,1013.2
2017-03-07T11:48:06.647Z,1013.2
2017-03-07T11:49:08.936Z,1013.2
2017-03-07T11:50:11.898Z,1013.2
2017-03-07T11:51:14.356Z,1013.3
2017-03-07T11:52:17.098Z,1013.2
2017-03-07T11:53:19.550Z,1013.3
2017-03-07T11:54:22.024Z,1013.3
2017-03-07T11:55:24.316Z,1013.3
2017-03-07T11:56:27.122Z,1013.3
2017-03-07T11:57:29.860Z,1013.3
2017-03-07T11:58:32.349Z,1013.3
2017-03-07T11:59:34.803Z,1013.4
2017-03-07T12:00:37.251Z,1013.3
2017-03-07T12:01:39.902Z,1013.3
2017-03-07T12:02:42.654Z,1013.4
2017-03-07T12:03:44.945Z,1013.3
2017-03-07T12:04:47.246Z,1013.4
2017-03-07T12:05:50.223Z,1013.4
2017-03-07T12:06:52.670Z,1013.4
2017-03-07T12:07:55.423Z,1013.4
2017-03-07T12:11:02.684Z,1013.4
2017-03-07T12:12:05.138Z,1013.4
2017-03-07T12:13:07.864Z,1013.4
2017-03-07T12:14:10.352Z,1013.5
2017-03-07T12:15:13.148Z,1013.5
2017-03-07T12:16:15.617Z,1013.5
2017-03-07T12:17:18.069Z,1013.5
2017-03-07T12:18:20.775Z,1013.6
2017-03-07T12:19:23.225Z,1013.7
2017-03-07T12:20:25.677Z,1013.6
2017-03-07T12:21:28.469Z,1013.7
2017-03-07T12:22:30.935Z,1013.7
2017-03-07T12:25:38.965Z,1013.8
2017-03-07T12:26:40.945Z,1013.8
2017-03-07T12:27:43.435Z,1013.9
2017-03-07T12:29:48.642Z,1013.9
2017-03-07T12:30:51.294Z,1013.9
2017-03-07T12:31:53.617Z,1013.9
2017-03-07T12:32:56.077Z,1013.9
2017-03-07T12:33:59.036Z,1013.9
2017-03-07T12:35:01.323Z,1013.9
2017-03-07T12:36:04.375Z,1013.9
2017-03-07T12:37:06.690Z,1014
2017-03-07T12:38:09.164Z,1014
2017-03-07T12:39:11.627Z,1014
2017-03-07T12:40:14.085Z,1014
2017-03-07T12:41:16.787Z,1014
2017-03-07T12:42:19.260Z,1014
2017-03-07T12:43:21.725Z,1014
2017-03-07T12:44:24.552Z,1014
2017-03-07T12:46:29.492Z,1014
2017-03-07T12:47:31.967Z,1014
2017-03-07T12:48:34.761Z,1014.1
2017-03-07T12:49:36.929Z,1014.1
2017-03-07T12:50:39.892Z,1014.1
2017-03-07T12:51:42.691Z,1014.1
2017-03-07T12:52:44.661Z,1014.1
2017-03-07T12:53:47.137Z,1014.1
2017-03-07T12:54:49.589Z,1014.1
2017-03-07T12:55:52.381Z,1014.1
2017-03-07T12:56:55.084Z,1014.1
2017-03-07T12:57:57.553Z,1014.1
2017-03-07T12:59:00.003Z,1014.1
2017-03-07T13:00:02.469Z,1014.1
2017-03-07T13:01:05.277Z,1014.2
2017-03-07T13:02:08.029Z,1014.1
2017-03-07T13:03:09.979Z,1014.1
2017-03-07T13:04:12.788Z,1014.1
2017-03-07T13:05:15.250Z,1014.2
2017-03-07T13:06:17.721Z,1014.2
2017-03-07T13:07:20.424Z,1014.2
2017-03-07T13:08:22.891Z,1014.2
2017-03-07T13:09:25.344Z,1014.2
2017-03-07T13:10:28.301Z,1014.2
2017-03-07T13:12:33.384Z,1014.2
2017-03-07T13:13:35.883Z,1014.2
2017-03-07T13:14:38.228Z,1014.2
2017-03-07T13:15:40.767Z,1014.2
2017-03-07T13:16:43.304Z,1014.2
2017-03-07T13:17:46.079Z,1014.2
2017-03-07T13:18:48.582Z,1014.2
2017-03-07T13:19:51.078Z,1014.2
2017-03-07T13:20:53.536Z,1014.2
2017-03-07T13:21:55.998Z,1014.3
2017-03-07T13:22:58.730Z,1014.3
2017-03-07T13:24:01.200Z,1014.3
2017-03-07T13:25:03.690Z,1014.4
2017-03-07T13:26:06.478Z,1014.3
2017-03-07T13:27:08.763Z,1014.4
2017-03-07T13:28:11.469Z,1014.4
2017-03-07T13:29:13.922Z,1014.4
2017-03-07T13:30:16.388Z,1014.4
2017-03-07T13:31:19.204Z,1014.5
2017-03-07T13:32:21.509Z,1014.5
2017-03-07T13:33:24.596Z,1014.5
2017-03-07T13:34:26.555Z,1014.5
2017-03-07T13:35:29.516Z,1014.5
2017-03-07T13:36:31.978Z,1014.5
2017-03-07T13:37:34.437Z,1014.5
2017-03-07T13:38:37.204Z,1014.5
2017-03-07T13:39:39.675Z,1014.5
2017-03-07T13:40:42.129Z,1014.5
2017-03-07T13:41:44.599Z,1014.5
2017-03-07T13:42:47.048Z,1014.5
2017-03-07T13:43:49.974Z,1014.5
2017-03-07T13:44:52.452Z,1014.5
2017-03-07T13:45:54.938Z,1014.5
2017-03-07T13:46:57.232Z,1014.5
2017-03-07T13:47:59.696Z,1014.6
2017-03-07T13:49:02.965Z,1014.6
2017-03-07T13:50:04.916Z,1014.6
2017-03-07T13:51:07.391Z,1014.6
2017-03-07T13:52:09.878Z,1014.6
2017-03-07T13:53:12.846Z,1014.6
2017-03-07T13:54:15.572Z,1014.7
2017-03-07T13:55:18.038Z,1014.7
2017-03-07T13:56:20.498Z,1014.7
2017-03-07T13:57:22.948Z,1014.7
2017-03-07T13:58:25.438Z,1014.7
2017-03-07T13:59:28.145Z,1014.7
2017-03-07T14:00:30.600Z,1014.8
2017-03-07T14:02:35.469Z,1014.8
2017-03-07T14:03:38.422Z,1014.8
2017-03-07T14:04:40.964Z,1014.8